sensor_id;sensor_type;location;lat;lon;timestamp;P1;durP1;ratioP1;P2;durP2;ratioP2
37483;SDS011;23337;52.212;9.926;2023-04-07T00:01:41;11.47;;;9.13;;
37483;SDS011;23337;52.212;9.926;2023-04-07T00:04:07;11.97;;;9.63;;
37483;SDS011;23337;52.212;9.926;2023-04-07T00:06:33;11.00;;;9.40;;
37483;SDS011;23337;52.212;9.926;2023-04-07T00:08:59;11.27;;;8.43;;
37483;SDS011;23337;52.212;9.926;2023-04-07T00:11:25;10.63;;;8.77;;
37483;SDS011;23337;52.212;9.926;2023-04-07T00:13:51;11.30;;;8.80;;
37483;SDS011;23337;52.212;9.926;2023-04-07T00:16:17;11.83;;;8.93;;
37483;SDS011;23337;52.212;9.926;2023-04-07T00:18:43;11.63;;;9.97;;
37483;SDS011;23337;52.212;9.926;2023-04-07T00:21:09;12.13;;;8.93;;
37483;SDS011;23337;52.212;9.926;2023-04-07T00:23:35;13.33;;;10.40;;
37483;SDS011;23337;52.212;9.926;2023-04-07T00:26:01;11.70;;;9.07;;
37483;SDS011;23337;52.212;9.926;2023-04-07T00:28:27;9.93;;;8.57;;
37483;SDS011;23337;52.212;9.926;2023-04-07T00:30:53;12.90;;;9.03;;
37483;SDS011;23337;52.212;9.926;2023-04-07T00:33:19;15.63;;;9.67;;
37483;SDS011;23337;52.212;9.926;2023-04-07T00:35:45;11.33;;;9.33;;
37483;SDS011;23337;52.212;9.926;2023-04-07T00:38:11;12.13;;;9.40;;
37483;SDS011;23337;52.212;9.926;2023-04-07T00:40:37;12.43;;;9.73;;
37483;SDS011;23337;52.212;9.926;2023-04-07T00:43:03;12.93;;;10.07;;
37483;SDS011;23337;52.212;9.926;2023-04-07T00:45:28;13.07;;;9.77;;
37483;SDS011;23337;52.212;9.926;2023-04-07T00:47:55;11.27;;;9.70;;
37483;SDS011;23337;52.212;9.926;2023-04-07T00:50:22;12.10;;;9.87;;
37483;SDS011;23337;52.212;9.926;2023-04-07T00:52:48;10.83;;;9.60;;
37483;SDS011;23337;52.212;9.926;2023-04-07T00:55:14;11.40;;;10.17;;
37483;SDS011;23337;52.212;9.926;2023-04-07T00:57:40;11.80;;;9.10;;
37483;SDS011;23337;52.212;9.926;2023-04-07T01:00:06;12.40;;;10.47;;
37483;SDS011;23337;52.212;9.926;2023-04-07T01:03:16;14.17;;;10.00;;
37483;SDS011;23337;52.212;9.926;2023-04-07T01:10:32;12.97;;;8.93;;
37483;SDS011;23337;52.212;9.926;2023-04-07T01:13:34;11.03;;;9.17;;
37483;SDS011;23337;52.212;9.926;2023-04-07T01:15:52;9.33;;;8.00;;
37483;SDS011;23337;52.212;9.926;2023-04-07T01:18:21;11.30;;;8.77;;
37483;SDS011;23337;52.212;9.926;2023-04-07T01:20:50;10.67;;;8.27;;
37483;SDS011;23337;52.212;9.926;2023-04-07T01:23:20;10.07;;;8.53;;
37483;SDS011;23337;52.212;9.926;2023-04-07T01:26:06;10.13;;;8.23;;
37483;SDS011;23337;52.212;9.926;2023-04-07T01:31:10;9.97;;;8.90;;
37483;SDS011;23337;52.212;9.926;2023-04-07T01:33:37;9.83;;;8.83;;
37483;SDS011;23337;52.212;9.926;2023-04-07T01:36:05;11.30;;;8.90;;
37483;SDS011;23337;52.212;9.926;2023-04-07T01:38:31;8.83;;;7.93;;
37483;SDS011;23337;52.212;9.926;2023-04-07T01:40:58;11.57;;;9.33;;
37483;SDS011;23337;52.212;9.926;2023-04-07T01:43:25;9.40;;;8.60;;
37483;SDS011;23337;52.212;9.926;2023-04-07T01:45:52;9.77;;;8.77;;
37483;SDS011;23337;52.212;9.926;2023-04-07T01:48:19;12.93;;;10.13;;
37483;SDS011;23337;52.212;9.926;2023-04-07T01:50:45;18.97;;;13.87;;
37483;SDS011;23337;52.212;9.926;2023-04-07T01:53:11;24.47;;;16.50;;
37483;SDS011;23337;52.212;9.926;2023-04-07T01:55:38;23.70;;;17.50;;
37483;SDS011;23337;52.212;9.926;2023-04-07T01:58:05;28.73;;;17.70;;
37483;SDS011;23337;52.212;9.926;2023-04-07T02:00:31;17.53;;;14.13;;
37483;SDS011;23337;52.212;9.926;2023-04-07T02:02:58;16.70;;;12.13;;
37483;SDS011;23337;52.212;9.926;2023-04-07T02:05:27;12.40;;;9.17;;
37483;SDS011;23337;52.212;9.926;2023-04-07T02:07:58;10.20;;;9.07;;
37483;SDS011;23337;52.212;9.926;2023-04-07T02:10:25;10.77;;;9.50;;
37483;SDS011;23337;52.212;9.926;2023-04-07T02:12:52;9.47;;;8.53;;
37483;SDS011;23337;52.212;9.926;2023-04-07T02:15:18;9.87;;;8.47;;
37483;SDS011;23337;52.212;9.926;2023-04-07T02:17:46;10.97;;;8.90;;
37483;SDS011;23337;52.212;9.926;2023-04-07T02:20:13;10.00;;;9.00;;
37483;SDS011;23337;52.212;9.926;2023-04-07T02:22:40;10.37;;;8.77;;
37483;SDS011;23337;52.212;9.926;2023-04-07T02:25:19;8.87;;;7.80;;
37483;SDS011;23337;52.212;9.926;2023-04-07T02:27:45;9.20;;;8.27;;
37483;SDS011;23337;52.212;9.926;2023-04-07T02:30:11;10.60;;;8.93;;
37483;SDS011;23337;52.212;9.926;2023-04-07T02:32:37;10.07;;;9.07;;
37483;SDS011;23337;52.212;9.926;2023-04-07T02:35:03;10.20;;;8.87;;
37483;SDS011;23337;52.212;9.926;2023-04-07T02:37:29;10.73;;;8.80;;
37483;SDS011;23337;52.212;9.926;2023-04-07T02:39:55;11.03;;;9.17;;
37483;SDS011;23337;52.212;9.926;2023-04-07T02:42:21;9.97;;;8.83;;
37483;SDS011;23337;52.212;9.926;2023-04-07T02:44:47;11.20;;;9.67;;
37483;SDS011;23337;52.212;9.926;2023-04-07T02:47:13;10.90;;;9.63;;
37483;SDS011;23337;52.212;9.926;2023-04-07T02:49:39;10.57;;;9.07;;
37483;SDS011;23337;52.212;9.926;2023-04-07T02:52:05;11.03;;;9.83;;
37483;SDS011;23337;52.212;9.926;2023-04-07T02:54:31;12.17;;;9.97;;
37483;SDS011;23337;52.212;9.926;2023-04-07T02:56:57;12.43;;;9.83;;
37483;SDS011;23337;52.212;9.926;2023-04-07T02:59:23;14.53;;;10.17;;
37483;SDS011;23337;52.212;9.926;2023-04-07T03:01:49;11.47;;;9.13;;
37483;SDS011;23337;52.212;9.926;2023-04-07T03:04:15;11.40;;;9.87;;
37483;SDS011;23337;52.212;9.926;2023-04-07T03:06:41;13.87;;;10.43;;
37483;SDS011;23337;52.212;9.926;2023-04-07T03:09:07;13.10;;;9.90;;
37483;SDS011;23337;52.212;9.926;2023-04-07T03:11:33;9.90;;;8.90;;
37483;SDS011;23337;52.212;9.926;2023-04-07T03:14:00;11.13;;;9.63;;
37483;SDS011;23337;52.212;9.926;2023-04-07T03:16:26;10.73;;;9.43;;
37483;SDS011;23337;52.212;9.926;2023-04-07T03:18:52;10.87;;;9.33;;
37483;SDS011;23337;52.212;9.926;2023-04-07T03:21:18;13.73;;;9.37;;
37483;SDS011;23337;52.212;9.926;2023-04-07T03:23:43;10.77;;;9.17;;
37483;SDS011;23337;52.212;9.926;2023-04-07T03:26:10;11.47;;;10.27;;
37483;SDS011;23337;52.212;9.926;2023-04-07T03:28:36;10.67;;;9.60;;
37483;SDS011;23337;52.212;9.926;2023-04-07T03:31:02;11.90;;;10.67;;
37483;SDS011;23337;52.212;9.926;2023-04-07T03:33:28;11.73;;;9.50;;
37483;SDS011;23337;52.212;9.926;2023-04-07T03:35:54;12.13;;;11.00;;
37483;SDS011;23337;52.212;9.926;2023-04-07T03:38:20;11.37;;;9.50;;
37483;SDS011;23337;52.212;9.926;2023-04-07T03:40:46;11.30;;;10.07;;
37483;SDS011;23337;52.212;9.926;2023-04-07T03:43:12;12.27;;;10.97;;
37483;SDS011;23337;52.212;9.926;2023-04-07T03:45:39;11.80;;;10.57;;
37483;SDS011;23337;52.212;9.926;2023-04-07T03:48:06;13.23;;;11.10;;
37483;SDS011;23337;52.212;9.926;2023-04-07T03:50:35;12.03;;;10.83;;
37483;SDS011;23337;52.212;9.926;2023-04-07T03:53:01;14.70;;;11.60;;
37483;SDS011;23337;52.212;9.926;2023-04-07T03:55:27;12.43;;;11.10;;
37483;SDS011;23337;52.212;9.926;2023-04-07T03:57:54;11.80;;;10.23;;
37483;SDS011;23337;52.212;9.926;2023-04-07T04:00:20;14.67;;;10.73;;
37483;SDS011;23337;52.212;9.926;2023-04-07T04:02:46;13.50;;;11.33;;
37483;SDS011;23337;52.212;9.926;2023-04-07T04:05:12;11.43;;;10.20;;
37483;SDS011;23337;52.212;9.926;2023-04-07T04:07:38;12.67;;;10.87;;
37483;SDS011;23337;52.212;9.926;2023-04-07T04:10:04;11.80;;;10.17;;
37483;SDS011;23337;52.212;9.926;2023-04-07T04:12:30;11.70;;;10.40;;
37483;SDS011;23337;52.212;9.926;2023-04-07T04:14:56;11.87;;;10.03;;
37483;SDS011;23337;52.212;9.926;2023-04-07T04:17:22;11.37;;;10.20;;
37483;SDS011;23337;52.212;9.926;2023-04-07T04:19:49;11.40;;;10.07;;
37483;SDS011;23337;52.212;9.926;2023-04-07T04:22:15;13.43;;;10.37;;
37483;SDS011;23337;52.212;9.926;2023-04-07T04:24:41;12.33;;;10.93;;
37483;SDS011;23337;52.212;9.926;2023-04-07T04:27:07;11.70;;;10.27;;
37483;SDS011;23337;52.212;9.926;2023-04-07T04:29:33;13.83;;;10.57;;
37483;SDS011;23337;52.212;9.926;2023-04-07T04:31:59;13.77;;;12.10;;
37483;SDS011;23337;52.212;9.926;2023-04-07T04:34:25;14.17;;;11.70;;
37483;SDS011;23337;52.212;9.926;2023-04-07T04:36:51;15.37;;;12.20;;
37483;SDS011;23337;52.212;9.926;2023-04-07T04:39:17;13.57;;;11.80;;
37483;SDS011;23337;52.212;9.926;2023-04-07T04:41:43;14.17;;;12.73;;
37483;SDS011;23337;52.212;9.926;2023-04-07T04:44:10;12.63;;;11.33;;
37483;SDS011;23337;52.212;9.926;2023-04-07T04:46:36;13.70;;;11.97;;
37483;SDS011;23337;52.212;9.926;2023-04-07T04:49:02;14.27;;;12.50;;
37483;SDS011;23337;52.212;9.926;2023-04-07T04:51:28;15.87;;;13.23;;
37483;SDS011;23337;52.212;9.926;2023-04-07T04:53:54;12.97;;;11.67;;
37483;SDS011;23337;52.212;9.926;2023-04-07T04:56:20;14.33;;;12.43;;
37483;SDS011;23337;52.212;9.926;2023-04-07T04:58:46;14.83;;;11.83;;
37483;SDS011;23337;52.212;9.926;2023-04-07T05:01:12;13.80;;;12.40;;
37483;SDS011;23337;52.212;9.926;2023-04-07T05:03:38;14.20;;;12.73;;
37483;SDS011;23337;52.212;9.926;2023-04-07T05:06:04;12.60;;;11.33;;
37483;SDS011;23337;52.212;9.926;2023-04-07T05:08:30;13.87;;;12.47;;
37483;SDS011;23337;52.212;9.926;2023-04-07T05:10:56;14.37;;;12.33;;
37483;SDS011;23337;52.212;9.926;2023-04-07T05:13:22;14.67;;;12.03;;
37483;SDS011;23337;52.212;9.926;2023-04-07T05:15:49;14.20;;;12.33;;
37483;SDS011;23337;52.212;9.926;2023-04-07T05:18:15;13.10;;;11.57;;
37483;SDS011;23337;52.212;9.926;2023-04-07T05:20:42;14.87;;;12.17;;
37483;SDS011;23337;52.212;9.926;2023-04-07T05:23:08;14.57;;;12.13;;
37483;SDS011;23337;52.212;9.926;2023-04-07T05:25:34;13.87;;;12.40;;
37483;SDS011;23337;52.212;9.926;2023-04-07T05:28:00;13.97;;;12.33;;
37483;SDS011;23337;52.212;9.926;2023-04-07T05:30:26;13.27;;;11.87;;
37483;SDS011;23337;52.212;9.926;2023-04-07T05:32:52;14.07;;;12.67;;
37483;SDS011;23337;52.212;9.926;2023-04-07T05:35:19;13.23;;;11.50;;
37483;SDS011;23337;52.212;9.926;2023-04-07T05:37:45;13.63;;;12.17;;
37483;SDS011;23337;52.212;9.926;2023-04-07T05:40:11;14.97;;;12.17;;
37483;SDS011;23337;52.212;9.926;2023-04-07T05:42:37;14.87;;;13.37;;
37483;SDS011;23337;52.212;9.926;2023-04-07T05:45:03;14.03;;;12.37;;
37483;SDS011;23337;52.212;9.926;2023-04-07T05:47:29;13.43;;;12.03;;
37483;SDS011;23337;52.212;9.926;2023-04-07T05:49:55;13.83;;;12.23;;
37483;SDS011;23337;52.212;9.926;2023-04-07T05:52:21;16.10;;;13.13;;
37483;SDS011;23337;52.212;9.926;2023-04-07T05:54:47;13.67;;;12.20;;
37483;SDS011;23337;52.212;9.926;2023-04-07T05:57:13;14.30;;;12.80;;
37483;SDS011;23337;52.212;9.926;2023-04-07T05:59:39;14.13;;;12.73;;
37483;SDS011;23337;52.212;9.926;2023-04-07T06:02:06;14.50;;;13.00;;
37483;SDS011;23337;52.212;9.926;2023-04-07T06:04:32;15.33;;;12.70;;
37483;SDS011;23337;52.212;9.926;2023-04-07T06:06:59;15.03;;;12.93;;
37483;SDS011;23337;52.212;9.926;2023-04-07T06:09:25;15.23;;;13.20;;
37483;SDS011;23337;52.212;9.926;2023-04-07T06:11:51;14.40;;;12.97;;
37483;SDS011;23337;52.212;9.926;2023-04-07T06:14:17;13.73;;;12.37;;
37483;SDS011;23337;52.212;9.926;2023-04-07T06:16:43;15.23;;;13.63;;
37483;SDS011;23337;52.212;9.926;2023-04-07T06:19:09;14.80;;;13.30;;
37483;SDS011;23337;52.212;9.926;2023-04-07T06:21:35;19.00;;;14.97;;
37483;SDS011;23337;52.212;9.926;2023-04-07T06:24:01;15.70;;;14.00;;
37483;SDS011;23337;52.212;9.926;2023-04-07T06:26:27;16.60;;;14.93;;
37483;SDS011;23337;52.212;9.926;2023-04-07T06:28:53;17.13;;;15.30;;
37483;SDS011;23337;52.212;9.926;2023-04-07T06:31:19;16.77;;;14.57;;
37483;SDS011;23337;52.212;9.926;2023-04-07T06:33:45;14.90;;;13.40;;
37483;SDS011;23337;52.212;9.926;2023-04-07T06:36:11;15.97;;;13.93;;
37483;SDS011;23337;52.212;9.926;2023-04-07T06:38:37;18.17;;;14.80;;
37483;SDS011;23337;52.212;9.926;2023-04-07T06:41:03;13.90;;;12.50;;
37483;SDS011;23337;52.212;9.926;2023-04-07T06:43:30;15.23;;;13.63;;
37483;SDS011;23337;52.212;9.926;2023-04-07T06:45:56;17.00;;;15.17;;
37483;SDS011;23337;52.212;9.926;2023-04-07T06:48:22;17.47;;;14.87;;
37483;SDS011;23337;52.212;9.926;2023-04-07T06:50:48;16.73;;;14.63;;
37483;SDS011;23337;52.212;9.926;2023-04-07T06:53:14;17.00;;;14.13;;
37483;SDS011;23337;52.212;9.926;2023-04-07T06:55:40;16.70;;;14.97;;
37483;SDS011;23337;52.212;9.926;2023-04-07T06:58:06;16.60;;;14.90;;
37483;SDS011;23337;52.212;9.926;2023-04-07T07:00:32;16.57;;;14.97;;
37483;SDS011;23337;52.212;9.926;2023-04-07T07:02:58;18.37;;;15.57;;
37483;SDS011;23337;52.212;9.926;2023-04-07T07:05:24;16.50;;;14.57;;
37483;SDS011;23337;52.212;9.926;2023-04-07T07:07:51;19.73;;;15.43;;
37483;SDS011;23337;52.212;9.926;2023-04-07T07:10:17;18.20;;;14.33;;
37483;SDS011;23337;52.212;9.926;2023-04-07T07:12:44;17.57;;;15.30;;
37483;SDS011;23337;52.212;9.926;2023-04-07T07:15:10;18.47;;;14.17;;
37483;SDS011;23337;52.212;9.926;2023-04-07T07:17:36;15.93;;;14.17;;
37483;SDS011;23337;52.212;9.926;2023-04-07T07:20:02;15.33;;;13.63;;
37483;SDS011;23337;52.212;9.926;2023-04-07T07:22:28;17.00;;;14.50;;
37483;SDS011;23337;52.212;9.926;2023-04-07T07:24:54;16.07;;;14.47;;
37483;SDS011;23337;52.212;9.926;2023-04-07T07:27:20;15.10;;;13.70;;
37483;SDS011;23337;52.212;9.926;2023-04-07T07:29:46;14.47;;;12.97;;
37483;SDS011;23337;52.212;9.926;2023-04-07T07:32:12;16.13;;;14.57;;
37483;SDS011;23337;52.212;9.926;2023-04-07T07:34:38;15.43;;;13.67;;
37483;SDS011;23337;52.212;9.926;2023-04-07T07:37:04;14.87;;;13.37;;
37483;SDS011;23337;52.212;9.926;2023-04-07T07:39:30;17.30;;;15.33;;
37483;SDS011;23337;52.212;9.926;2023-04-07T07:41:56;15.33;;;13.73;;
37483;SDS011;23337;52.212;9.926;2023-04-07T07:44:22;14.23;;;12.83;;
37483;SDS011;23337;52.212;9.926;2023-04-07T07:46:48;14.90;;;13.13;;
37483;SDS011;23337;52.212;9.926;2023-04-07T07:49:14;15.10;;;11.97;;
37483;SDS011;23337;52.212;9.926;2023-04-07T07:51:40;14.67;;;13.10;;
37483;SDS011;23337;52.212;9.926;2023-04-07T07:54:06;12.70;;;11.43;;
37483;SDS011;23337;52.212;9.926;2023-04-07T07:56:33;12.13;;;10.90;;
37483;SDS011;23337;52.212;9.926;2023-04-07T07:58:59;13.23;;;11.80;;
37483;SDS011;23337;52.212;9.926;2023-04-07T08:01:25;13.80;;;11.70;;
37483;SDS011;23337;52.212;9.926;2023-04-07T08:03:51;12.43;;;11.23;;
37483;SDS011;23337;52.212;9.926;2023-04-07T08:06:17;13.90;;;11.53;;
37483;SDS011;23337;52.212;9.926;2023-04-07T08:08:43;14.60;;;13.10;;
37483;SDS011;23337;52.212;9.926;2023-04-07T08:11:09;15.23;;;13.03;;
37483;SDS011;23337;52.212;9.926;2023-04-07T08:13:35;14.57;;;13.10;;
37483;SDS011;23337;52.212;9.926;2023-04-07T08:16:01;15.90;;;12.97;;
37483;SDS011;23337;52.212;9.926;2023-04-07T08:18:27;16.20;;;12.40;;
37483;SDS011;23337;52.212;9.926;2023-04-07T08:20:53;13.53;;;12.20;;
37483;SDS011;23337;52.212;9.926;2023-04-07T08:23:19;13.80;;;12.13;;
37483;SDS011;23337;52.212;9.926;2023-04-07T08:25:45;14.03;;;12.57;;
37483;SDS011;23337;52.212;9.926;2023-04-07T08:28:11;15.53;;;12.33;;
37483;SDS011;23337;52.212;9.926;2023-04-07T08:30:37;16.20;;;13.00;;
37483;SDS011;23337;52.212;9.926;2023-04-07T08:33:04;13.63;;;11.83;;
37483;SDS011;23337;52.212;9.926;2023-04-07T08:35:30;13.20;;;11.90;;
37483;SDS011;23337;52.212;9.926;2023-04-07T08:37:56;12.80;;;10.00;;
37483;SDS011;23337;52.212;9.926;2023-04-07T08:40:22;16.57;;;11.37;;
37483;SDS011;23337;52.212;9.926;2023-04-07T08:42:48;13.07;;;11.77;;
37483;SDS011;23337;52.212;9.926;2023-04-07T08:45:15;12.30;;;11.03;;
37483;SDS011;23337;52.212;9.926;2023-04-07T08:47:41;13.13;;;11.60;;
37483;SDS011;23337;52.212;9.926;2023-04-07T08:50:08;13.47;;;10.93;;
37483;SDS011;23337;52.212;9.926;2023-04-07T08:52:43;11.13;;;8.40;;
37483;SDS011;23337;52.212;9.926;2023-04-07T08:55:11;12.83;;;9.43;;
37483;SDS011;23337;52.212;9.926;2023-04-07T08:57:37;10.90;;;8.93;;
37483;SDS011;23337;52.212;9.926;2023-04-07T09:00:03;11.33;;;8.60;;
37483;SDS011;23337;52.212;9.926;2023-04-07T09:02:31;8.77;;;7.43;;
37483;SDS011;23337;52.212;9.926;2023-04-07T09:04:57;8.57;;;7.57;;
37483;SDS011;23337;52.212;9.926;2023-04-07T09:07:24;8.20;;;7.23;;
37483;SDS011;23337;52.212;9.926;2023-04-07T09:09:50;10.77;;;7.83;;
37483;SDS011;23337;52.212;9.926;2023-04-07T09:12:16;9.73;;;8.03;;
37483;SDS011;23337;52.212;9.926;2023-04-07T09:14:42;9.63;;;8.53;;
37483;SDS011;23337;52.212;9.926;2023-04-07T09:17:08;9.07;;;8.17;;
37483;SDS011;23337;52.212;9.926;2023-04-07T09:19:34;10.40;;;8.13;;
37483;SDS011;23337;52.212;9.926;2023-04-07T09:22:00;10.27;;;7.20;;
37483;SDS011;23337;52.212;9.926;2023-04-07T09:24:26;10.27;;;7.83;;
37483;SDS011;23337;52.212;9.926;2023-04-07T09:29:38;8.77;;;7.90;;
37483;SDS011;23337;52.212;9.926;2023-04-07T09:32:04;10.13;;;7.53;;
37483;SDS011;23337;52.212;9.926;2023-04-07T09:34:31;9.60;;;7.90;;
37483;SDS011;23337;52.212;9.926;2023-04-07T09:36:58;7.83;;;6.80;;
37483;SDS011;23337;52.212;9.926;2023-04-07T09:39:24;8.97;;;7.07;;
37483;SDS011;23337;52.212;9.926;2023-04-07T09:41:50;8.37;;;7.10;;
37483;SDS011;23337;52.212;9.926;2023-04-07T09:44:20;7.77;;;6.97;;
37483;SDS011;23337;52.212;9.926;2023-04-07T09:46:47;8.97;;;7.73;;
37483;SDS011;23337;52.212;9.926;2023-04-07T09:49:13;7.70;;;6.90;;
37483;SDS011;23337;52.212;9.926;2023-04-07T09:51:50;7.20;;;6.50;;
37483;SDS011;23337;52.212;9.926;2023-04-07T09:54:23;8.73;;;7.40;;
37483;SDS011;23337;52.212;9.926;2023-04-07T09:56:57;7.77;;;6.10;;
37483;SDS011;23337;52.212;9.926;2023-04-07T09:59:23;6.83;;;6.13;;
37483;SDS011;23337;52.212;9.926;2023-04-07T10:01:50;8.80;;;7.17;;
37483;SDS011;23337;52.212;9.926;2023-04-07T10:04:16;9.13;;;7.63;;
37483;SDS011;23337;52.212;9.926;2023-04-07T10:06:42;8.17;;;7.37;;
37483;SDS011;23337;52.212;9.926;2023-04-07T10:09:08;8.47;;;7.57;;
37483;SDS011;23337;52.212;9.926;2023-04-07T10:11:34;10.53;;;7.93;;
37483;SDS011;23337;52.212;9.926;2023-04-07T10:14:01;9.53;;;7.27;;
37483;SDS011;23337;52.212;9.926;2023-04-07T10:16:27;9.07;;;7.73;;
37483;SDS011;23337;52.212;9.926;2023-04-07T10:18:54;9.80;;;7.87;;
37483;SDS011;23337;52.212;9.926;2023-04-07T10:21:20;10.57;;;7.87;;
37483;SDS011;23337;52.212;9.926;2023-04-07T10:24:04;11.50;;;8.27;;
37483;SDS011;23337;52.212;9.926;2023-04-07T10:26:39;8.77;;;6.90;;
37483;SDS011;23337;52.212;9.926;2023-04-07T10:29:07;9.17;;;7.37;;
37483;SDS011;23337;52.212;9.926;2023-04-07T10:31:35;12.30;;;7.53;;
37483;SDS011;23337;52.212;9.926;2023-04-07T10:34:01;8.43;;;7.60;;
37483;SDS011;23337;52.212;9.926;2023-04-07T10:36:27;8.77;;;6.90;;
37483;SDS011;23337;52.212;9.926;2023-04-07T10:41:36;10.77;;;8.23;;
37483;SDS011;23337;52.212;9.926;2023-04-07T10:44:02;10.30;;;7.63;;
37483;SDS011;23337;52.212;9.926;2023-04-07T10:49:13;9.70;;;7.97;;
37483;SDS011;23337;52.212;9.926;2023-04-07T10:51:40;10.43;;;8.07;;
37483;SDS011;23337;52.212;9.926;2023-04-07T10:54:22;10.87;;;8.10;;
37483;SDS011;23337;52.212;9.926;2023-04-07T10:59:29;10.00;;;8.43;;
37483;SDS011;23337;52.212;9.926;2023-04-07T11:02:28;9.70;;;8.63;;
37483;SDS011;23337;52.212;9.926;2023-04-07T11:04:44;10.17;;;7.43;;
37483;SDS011;23337;52.212;9.926;2023-04-07T11:07:11;11.87;;;7.93;;
37483;SDS011;23337;52.212;9.926;2023-04-07T11:09:37;10.03;;;7.70;;
37483;SDS011;23337;52.212;9.926;2023-04-07T11:12:03;8.90;;;8.00;;
37483;SDS011;23337;52.212;9.926;2023-04-07T11:14:30;9.97;;;7.47;;
37483;SDS011;23337;52.212;9.926;2023-04-07T11:16:57;9.77;;;8.30;;
37483;SDS011;23337;52.212;9.926;2023-04-07T11:19:25;9.97;;;7.90;;
37483;SDS011;23337;52.212;9.926;2023-04-07T11:21:51;12.67;;;7.83;;
37483;SDS011;23337;52.212;9.926;2023-04-07T11:24:37;10.47;;;7.90;;
37483;SDS011;23337;52.212;9.926;2023-04-07T11:27:03;10.13;;;7.60;;
37483;SDS011;23337;52.212;9.926;2023-04-07T11:29:32;7.50;;;6.77;;
37483;SDS011;23337;52.212;9.926;2023-04-07T11:31:59;9.40;;;8.23;;
37483;SDS011;23337;52.212;9.926;2023-04-07T11:34:29;9.60;;;7.97;;
37483;SDS011;23337;52.212;9.926;2023-04-07T11:36:55;10.27;;;8.37;;
37483;SDS011;23337;52.212;9.926;2023-04-07T11:39:24;11.30;;;8.30;;
37483;SDS011;23337;52.212;9.926;2023-04-07T11:41:59;9.67;;;8.23;;
37483;SDS011;23337;52.212;9.926;2023-04-07T11:44:25;12.33;;;8.97;;
37483;SDS011;23337;52.212;9.926;2023-04-07T11:46:57;9.67;;;7.93;;
37483;SDS011;23337;52.212;9.926;2023-04-07T11:49:25;11.03;;;8.67;;
37483;SDS011;23337;52.212;9.926;2023-04-07T11:52:00;11.13;;;9.27;;
37483;SDS011;23337;52.212;9.926;2023-04-07T11:54:27;9.43;;;8.40;;
37483;SDS011;23337;52.212;9.926;2023-04-07T11:56:53;10.23;;;8.97;;
37483;SDS011;23337;52.212;9.926;2023-04-07T11:59:23;9.67;;;8.37;;
37483;SDS011;23337;52.212;9.926;2023-04-07T12:01:50;9.93;;;8.93;;
37483;SDS011;23337;52.212;9.926;2023-04-07T12:04:16;12.03;;;9.10;;
37483;SDS011;23337;52.212;9.926;2023-04-07T12:06:43;11.70;;;8.37;;
37483;SDS011;23337;52.212;9.926;2023-04-07T12:09:26;10.87;;;8.20;;
37483;SDS011;23337;52.212;9.926;2023-04-07T12:11:53;11.77;;;9.43;;
37483;SDS011;23337;52.212;9.926;2023-04-07T12:14:19;10.87;;;9.23;;
37483;SDS011;23337;52.212;9.926;2023-04-07T12:16:45;10.17;;;9.07;;
37483;SDS011;23337;52.212;9.926;2023-04-07T12:19:11;10.63;;;9.30;;
37483;SDS011;23337;52.212;9.926;2023-04-07T12:21:37;10.97;;;8.47;;
37483;SDS011;23337;52.212;9.926;2023-04-07T12:24:03;11.90;;;8.83;;
37483;SDS011;23337;52.212;9.926;2023-04-07T12:26:29;9.87;;;8.73;;
37483;SDS011;23337;52.212;9.926;2023-04-07T12:28:55;12.03;;;9.60;;
37483;SDS011;23337;52.212;9.926;2023-04-07T12:31:22;9.40;;;8.27;;
37483;SDS011;23337;52.212;9.926;2023-04-07T12:33:49;11.40;;;9.83;;
37483;SDS011;23337;52.212;9.926;2023-04-07T12:36:15;11.10;;;9.23;;
37483;SDS011;23337;52.212;9.926;2023-04-07T12:38:41;9.83;;;8.83;;
37483;SDS011;23337;52.212;9.926;2023-04-07T12:41:07;11.67;;;9.50;;
37483;SDS011;23337;52.212;9.926;2023-04-07T12:43:33;14.37;;;9.57;;
37483;SDS011;23337;52.212;9.926;2023-04-07T12:45:59;9.60;;;8.13;;
37483;SDS011;23337;52.212;9.926;2023-04-07T12:48:25;10.53;;;9.03;;
37483;SDS011;23337;52.212;9.926;2023-04-07T12:50:51;12.20;;;8.50;;
37483;SDS011;23337;52.212;9.926;2023-04-07T12:53:17;9.73;;;8.07;;
37483;SDS011;23337;52.212;9.926;2023-04-07T12:55:43;10.17;;;9.10;;
37483;SDS011;23337;52.212;9.926;2023-04-07T12:58:09;11.67;;;8.67;;
37483;SDS011;23337;52.212;9.926;2023-04-07T13:00:35;11.27;;;9.53;;
37483;SDS011;23337;52.212;9.926;2023-04-07T13:03:01;10.40;;;8.53;;
37483;SDS011;23337;52.212;9.926;2023-04-07T13:05:27;8.57;;;7.57;;
37483;SDS011;23337;52.212;9.926;2023-04-07T13:07:53;9.23;;;8.03;;
37483;SDS011;23337;52.212;9.926;2023-04-07T13:10:19;10.57;;;9.23;;
37483;SDS011;23337;52.212;9.926;2023-04-07T13:12:45;13.90;;;9.13;;
37483;SDS011;23337;52.212;9.926;2023-04-07T13:15:11;10.60;;;9.33;;
37483;SDS011;23337;52.212;9.926;2023-04-07T13:17:37;9.47;;;8.20;;
37483;SDS011;23337;52.212;9.926;2023-04-07T13:20:04;9.47;;;7.43;;
37483;SDS011;23337;52.212;9.926;2023-04-07T13:22:31;9.03;;;7.57;;
37483;SDS011;23337;52.212;9.926;2023-04-07T13:24:57;9.47;;;7.70;;
37483;SDS011;23337;52.212;9.926;2023-04-07T13:27:23;10.00;;;8.17;;
37483;SDS011;23337;52.212;9.926;2023-04-07T13:29:49;9.60;;;7.80;;
37483;SDS011;23337;52.212;9.926;2023-04-07T13:32:15;9.43;;;7.30;;
37483;SDS011;23337;52.212;9.926;2023-04-07T13:34:41;8.90;;;7.30;;
37483;SDS011;23337;52.212;9.926;2023-04-07T13:37:08;9.73;;;8.17;;
37483;SDS011;23337;52.212;9.926;2023-04-07T13:39:34;10.80;;;7.87;;
37483;SDS011;23337;52.212;9.926;2023-04-07T13:42:00;10.03;;;7.93;;
37483;SDS011;23337;52.212;9.926;2023-04-07T13:44:26;8.47;;;7.40;;
37483;SDS011;23337;52.212;9.926;2023-04-07T13:46:52;8.10;;;7.00;;
37483;SDS011;23337;52.212;9.926;2023-04-07T13:49:19;9.87;;;7.40;;
37483;SDS011;23337;52.212;9.926;2023-04-07T13:51:46;7.53;;;6.53;;
37483;SDS011;23337;52.212;9.926;2023-04-07T13:54:12;8.40;;;6.57;;
37483;SDS011;23337;52.212;9.926;2023-04-07T13:56:38;8.20;;;6.47;;
37483;SDS011;23337;52.212;9.926;2023-04-07T13:59:04;8.23;;;6.60;;
37483;SDS011;23337;52.212;9.926;2023-04-07T14:01:30;7.40;;;5.80;;
37483;SDS011;23337;52.212;9.926;2023-04-07T14:03:57;9.63;;;5.87;;
37483;SDS011;23337;52.212;9.926;2023-04-07T14:06:23;8.43;;;6.03;;
37483;SDS011;23337;52.212;9.926;2023-04-07T14:08:50;6.00;;;5.43;;
37483;SDS011;23337;52.212;9.926;2023-04-07T14:11:17;5.13;;;4.63;;
37483;SDS011;23337;52.212;9.926;2023-04-07T14:13:43;8.97;;;6.03;;
37483;SDS011;23337;52.212;9.926;2023-04-07T14:16:09;6.13;;;4.73;;
37483;SDS011;23337;52.212;9.926;2023-04-07T14:18:35;6.87;;;5.20;;
37483;SDS011;23337;52.212;9.926;2023-04-07T14:21:01;12.87;;;8.97;;
37483;SDS011;23337;52.212;9.926;2023-04-07T14:23:27;12.70;;;7.83;;
37483;SDS011;23337;52.212;9.926;2023-04-07T14:25:53;6.07;;;5.50;;
37483;SDS011;23337;52.212;9.926;2023-04-07T14:28:19;6.67;;;5.37;;
37483;SDS011;23337;52.212;9.926;2023-04-07T14:30:45;6.63;;;5.43;;
37483;SDS011;23337;52.212;9.926;2023-04-07T14:33:12;6.37;;;5.50;;
37483;SDS011;23337;52.212;9.926;2023-04-07T14:35:39;6.60;;;4.83;;
37483;SDS011;23337;52.212;9.926;2023-04-07T14:38:05;6.63;;;5.27;;
37483;SDS011;23337;52.212;9.926;2023-04-07T14:40:31;8.43;;;5.53;;
37483;SDS011;23337;52.212;9.926;2023-04-07T14:42:57;5.73;;;5.10;;
37483;SDS011;23337;52.212;9.926;2023-04-07T14:45:23;5.67;;;4.70;;
37483;SDS011;23337;52.212;9.926;2023-04-07T14:47:49;6.00;;;5.50;;
37483;SDS011;23337;52.212;9.926;2023-04-07T14:50:15;6.30;;;5.10;;